Latest Coastal Weather Observations for Cape Jaffa

IDS60701

Issued at 6:21 am CST Sunday 31 May 2015 (issued every 10 minutes, with the page automatically refreshed every 10 minutes)

About coastal observations | Map of coastal stations | Coastal observations for SA | Marine services | Other Formats
Station Details ID: 026095 Name: THE LIMESTONE Lat: -36.97 Lon: 139.72 Height: 17.0 m
Data from the previous 72 hours. | See also: Recent months at Cape Jaffa
Date/Time
CST
Temp

°C
Wind Pressure Rain
since 9am
mm
Weather Cloud Vis
km
Sea
Height
m
Swell
Dir
 
Speed
knots
Gust
knots
hPa Trend Height
m
Period
s
Dir
31/06:00am 13.0 W 14 19 1014.9 - 1.4 Recent precip. - - - - - -
31/05:30am 12.6 W 18 26 1014.7 - 1.4 - - - - - - -
31/05:09am 13.9 WNW 15 25 1014.6 - 1.0 - - - - - - -
31/05:00am 14.0 W 15 19 1014.5 - 1.0 - - - - - - -
31/04:30am 13.8 W 14 19 1014.6 - 1.0 - - - - - - -
31/04:00am 13.5 W 15 19 1014.7 - 1.0 - - - - - - -
31/03:30am 12.8 W 14 18 1014.9 - 1.0 - - - - - - -
31/03:00am 12.9 WNW 13 18 1015.1 - 1.0 Recent precip. - - - - - -
31/02:30am 13.4 W 17 24 1015.0 - 1.0 - - - - - - -
31/02:00am 12.5 W 15 23 1015.4 - 0.8 - - - - - - -
31/01:30am 13.2 W 17 23 1015.3 - 0.4 - - - - - - -
31/01:00am 13.2 WSW 18 23 1015.6 - 0.4 - - - - - - -
31/12:30am 14.3 W 13 17 1015.8 - 0.4 - - - - - - -
31/12:00am 14.4 WNW 14 19 1016.3 - 0.4 - - - - - - -
 
Date/Time
CST
Temp

°C
Wind Pressure Rain
since 9am
mm
Weather Cloud Vis
km
Sea
Height
m
Swell
Dir
 
Speed
knots
Gust
knots
hPa Trend Height
m
Period
s
Dir
30/11:30pm 14.6 WNW 15 19 1016.4 - 0.4 - - - - - - -
30/11:00pm 14.4 WNW 16 21 1016.6 - 0.4 - - - - - - -
30/10:30pm 14.4 WNW 15 19 1017.0 - 0.4 - - - - - - -
30/10:00pm 14.3 W 14 18 1017.2 - 0.4 - - - - - - -
30/09:30pm 14.2 W 14 18 1017.3 - 0.4 - - - - - - -
30/09:00pm 13.9 WNW 14 20 1017.3 - 0.4 - - - - - - -
30/08:30pm 13.9 W 14 19 1017.5 - 0.4 - - - - - - -
30/08:00pm 13.7 WNW 12 15 1017.6 - 0.4 - - - - - - -
30/07:30pm 13.5 WNW 10 15 1017.7 - 0.4 - - - - - - -
30/07:00pm 13.2 W 15 19 1017.6 - 0.4 - - - - - - -
30/06:30pm 14.1 WNW 13 19 1017.6 - 0.4 - - - - - - -
30/06:00pm 14.1 W 13 17 1017.7 - 0.4 - - - - - - -
30/05:30pm 14.2 W 14 19 1017.5 - 0.4 - - - - - - -
30/05:00pm 14.1 W 14 19 1017.5 - 0.4 - - - - - - -
30/04:30pm 14.1 W 16 20 1017.4 - 0.4 - - - - - - -
30/04:00pm 14.8 W 15 21 1017.4 - 0.4 - - - - - - -
30/03:30pm 14.6 WNW 13 17 1017.4 - 0.4 - - - - - - -
30/03:00pm 14.3 W 13 16 1017.4 - 0.4 - - - - - - -
30/02:30pm 13.6 W 11 14 1017.5 - 0.4 - - - - - - -
30/02:02pm 14.5 WNW 16 27 1017.6 - 0.4 - - - - - - -
30/02:00pm 15.0 WNW 16 19 1017.5 - 0.4 - - - - - - -
30/01:30pm 15.2 W 16 21 1017.8 - 0.4 - - - - - - -
30/01:00pm 15.2 WNW 15 20 1018.1 - 0.4 - - - - - - -
30/12:30pm 13.6 WNW 19 26 1018.5 - 0.4 - - - - - - -
30/12:00pm 15.4 WNW 16 20 1018.8 - 0.2 - - - - - - -
30/11:30am 15.4 W 15 20 1019.3 - 0.2 - - - - - - -
30/11:00am 15.1 WNW 15 20 1019.8 - 0.2 - - - - - - -
30/10:49am 14.8 WNW 15 25 1019.7 - 0.2 - - - - - - -
30/10:30am 14.4 W 16 23 1019.9 - 0.2 - - - - - - -
30/10:00am 14.6 WNW 15 20 1019.9 - 0.2 - - - - - - -
30/09:30am 13.3 NW 11 14 1020.1 - 0.2 - - - - - - -
30/09:00am 13.1 WNW 14 22 1020.2 - 2.8 Rain - - - - - -
30/08:30am 13.4 NW 13 20 1020.2 - 2.0 - - - - - - -
30/08:00am 12.9 WNW 15 20 1020.1 - 1.8 - - - - - - -
30/07:30am 13.2 NW 15 24 1020.0 - 1.6 - - - - - - -
30/07:00am 14.0 WNW 14 19 1019.9 - 1.6 - - - - - - -
30/06:30am 13.3 NW 13 17 1019.9 - 1.6 - - - - - - -
30/06:00am 13.4 NW 12 16 1019.8 - 1.6 - - - - - - -
30/05:30am 13.1 NW 13 17 1019.9 - 1.6 - - - - - - -
30/05:00am 12.9 NW 12 17 1019.8 - 1.6 - - - - - - -
30/04:30am 12.2 NW 11 15 1019.9 - 1.6 - - - - - - -
30/04:00am 12.4 WNW 14 18 1020.1 - 1.6 - - - - - - -
30/03:49am 13.0 NW 15 25 1020.0 - 1.6 - - - - - - -
30/03:30am 13.1 NW 11 15 1020.2 - 1.6 - - - - - - -
30/03:00am 12.9 WNW 13 18 1020.3 - 1.6 - - - - - - -
30/02:30am 12.5 NW 11 16 1020.5 - 1.6 - - - - - - -
30/02:00am 12.6 WNW 14 21 1020.7 - 1.6 - - - - - - -
30/01:30am 12.8 NW 9 12 1020.7 - 1.6 - - - - - - -
30/01:00am 13.1 WNW 10 14 1021.1 - 1.6 - - - - - - -
30/12:30am 13.1 NW 11 15 1021.3 - 1.6 - - - - - - -
30/12:00am 13.0 NW 11 14 1021.7 - 1.6 - - - - - - -
 
Date/Time
CST
Temp

°C
Wind Pressure Rain
since 9am
mm
Weather Cloud Vis
km
Sea
Height
m
Swell
Dir
 
Speed
knots
Gust
knots
hPa Trend Height
m
Period
s
Dir
29/11:30pm 13.1 WNW 10 14 1021.9 - 1.6 - - - - - - -
29/11:00pm 12.8 WNW 10 14 1022.0 - 1.6 - - - - - - -
29/10:30pm 12.8 WNW 8 11 1022.1 - 1.6 - - - - - - -
29/10:00pm 12.5 WNW 8 11 1022.3 - 1.6 - - - - - - -
29/09:30pm 12.3 WNW 7 10 1022.2 - 1.6 - - - - - - -
29/09:00pm 12.0 WNW 7 9 1022.3 - 1.6 Rain - - - - - -
29/08:30pm 11.9 WNW 8 12 1022.4 - 1.4 - - - - - - -
29/08:00pm 12.0 WNW 6 9 1022.5 - 1.4 - - - - - - -
29/07:30pm 11.7 WNW 5 8 1022.4 - 1.4 - - - - - - -
29/07:00pm 11.6 NW 5 7 1022.2 - 1.0 - - - - - - -
29/06:30pm 11.2 WSW 9 13 1022.1 - 1.0 - - - - - - -
29/06:00pm 11.4 W 8 10 1022.0 - 1.0 - - - - - - -
29/05:30pm 12.0 WNW 7 10 1022.0 - 1.0 - - - - - - -
29/05:00pm 11.7 WNW 11 15 1021.9 - 1.0 - - - - - - -
29/04:30pm 12.2 WNW 4 5 1021.9 - 1.0 - - - - - - -
29/04:00pm 12.5 W 8 10 1021.9 - 1.0 - - - - - - -
29/03:30pm 13.0 W 6 8 1021.9 - 1.0 - - - - - - -
29/03:00pm 12.2 WNW 10 14 1022.0 - 0.6 Rain - - - - - -
29/02:30pm 12.8 WNW 5 8 1021.7 - 0.4 - - - - - - -
29/02:00pm 13.2 NW 10 14 1021.6 - 0.0 - - - - - - -
29/01:30pm 13.3 NW 5 7 1021.7 - 0.0 - - - - - - -
29/01:00pm 13.1 W 7 10 1021.8 - 0.0 - - - - - - -
29/12:30pm 13.3 WSW 14 18 1021.9 - 0.0 - - - - - - -
29/12:00pm 14.2 W 9 15 1022.0 - 0.0 - - - - - - -
29/11:30am 14.2 W 6 8 1022.4 - 0.0 - - - - - - -
29/11:00am 13.4 SW 8 12 1022.6 - 0.0 - - - - - - -
29/10:30am 13.7 WSW 11 13 1022.7 - 0.0 - - - - - - -
29/10:00am 13.3 WSW 13 19 1022.4 - 0.0 - - - - - - -
29/09:30am 12.5 W 10 16 1022.4 - 0.0 - - - - - - -
29/09:00am 12.9 WSW 9 13 1022.1 - 5.0 - - - - - - -
29/08:30am 12.7 SW 10 13 1022.0 - 5.0 - - - - - - -
29/08:00am 12.8 WSW 11 15 1021.7 - 5.0 - - - - - - -
29/07:30am 12.1 WSW 11 14 1021.6 - 5.0 - - - - - - -
29/07:00am 12.2 WSW 13 17 1021.2 - 5.0 - - - - - - -
29/06:30am 11.0 W 7 9 1021.1 - 5.0 - - - - - - -
29/06:00am 11.4 W 17 23 1020.8 - 5.0 - - - - - - -
29/05:30am 12.1 WSW 12 16 1020.3 - 5.0 - - - - - - -
29/05:00am 11.0 WSW 9 13 1020.2 - 5.0 - - - - - - -
29/04:30am 11.8 WSW 13 17 1019.9 - 5.0 - - - - - - -
29/04:00am 11.8 W 11 14 1019.9 - 5.0 - - - - - - -
29/03:30am 12.3 W 15 20 1019.7 - 5.0 - - - - - - -
29/03:00am 11.1 WSW 11 17 1019.8 - 5.0 Recent precip. - - - - - -
29/02:30am 11.5 W 11 16 1019.7 - 4.6 - - - - - - -
29/02:02am 11.9 W 15 25 1019.7 - 4.6 - - - - - - -
29/02:00am 12.2 W 14 24 1019.6 - 4.6 - - - - - - -
29/01:30am 12.0 W 12 16 1019.6 - 4.6 - - - - - - -
29/01:00am 11.5 WSW 18 23 1019.5 - 4.6 - - - - - - -
29/12:30am 12.6 W 13 20 1019.5 - 4.6 - - - - - - -
29/12:00am 12.3 W 10 15 1019.5 - 4.6 - - - - - - -
 
Date/Time
CST
Temp

°C
Wind Pressure Rain
since 9am
mm
Weather Cloud Vis
km
Sea
Height
m
Swell
Dir
 
Speed
knots
Gust
knots
hPa Trend Height
m
Period
s
Dir
28/11:30pm 11.8 WSW 11 18 1019.5 - 4.6 - - - - - - -
28/11:00pm 11.7 W 10 14 1019.4 - 4.6 - - - - - - -
28/10:30pm 11.2 W 16 24 1019.3 - 4.6 - - - - - - -
28/10:00pm 12.8 W 11 15 1019.0 - 4.2 - - - - - - -
28/09:30pm 12.9 W 14 18 1018.8 - 4.2 - - - - - - -
28/09:00pm 13.0 WSW 13 16 1018.6 - 4.2 - - - - - - -
28/08:30pm 13.3 W 15 20 1018.3 - 4.2 - - - - - - -
28/08:00pm 13.4 W 14 18 1018.1 - 4.2 - - - - - - -
28/07:30pm 13.5 WSW 14 19 1017.9 - 4.2 - - - - - - -
28/07:00pm 13.5 W 12 16 1017.4 - 4.2 - - - - - - -
28/06:30pm 13.7 W 14 18 1017.3 - 4.2 - - - - - - -
28/06:00pm 13.7 W 15 20 1017.0 - 4.2 - - - - - - -
28/05:30pm 13.9 WSW 15 20 1016.6 - 4.2 - - - - - - -
28/05:00pm 14.1 WSW 16 23 1016.2 - 4.2 - - - - - - -
28/04:30pm 14.3 W 15 20 1015.9 - 4.2 - - - - - - -
28/04:00pm 14.1 WSW 16 21 1015.6 - 4.2 - - - - - - -
28/03:43pm 13.9 W 16 26 1015.5 - 4.2 - - - - - - -
28/03:30pm 14.5 W 16 23 1015.3 - 4.2 - - - - - - -
28/03:00pm 15.1 W 15 19 1015.2 - 4.2 - - - - - - -
28/02:30pm 14.7 W 17 20 1014.9 - 4.2 - - - - - - -
28/02:00pm 14.3 WSW 21 26 1014.8 - 4.2 - - - - - - -
28/01:52pm 13.9 WSW 19 25 1014.7 - 4.2 - - - - - - -
28/01:30pm 14.3 WNW 18 24 1014.7 - 4.2 - - - - - - -
28/01:00pm 14.4 WNW 16 23 1014.6 - 2.0 - - - - - - -
28/12:30pm 16.3 NNW 19 27 1014.6 - 0.0 - - - - - - -
28/12:00pm 16.4 NNW 20 25 1014.8 - 0.0 - - - - - - -
28/11:30am 16.4 NNW 18 24 1015.2 - 0.0 - - - - - - -
28/11:00am 16.1 NNW 18 23 1015.6 - 0.0 - - - - - - -
28/10:30am 16.1 NW 17 22 1015.9 - 0.0 - - - - - - -
28/10:00am 15.5 NNW 17 22 1015.8 - 0.0 - - - - - - -
28/09:30am 15.6 NNW 18 23 1015.8 - 0.0 - - - - - - -
28/09:00am 15.4 NNW 17 23 1015.9 - 10.0 - - - - - - -
28/08:30am 15.2 NNW 15 19 1015.9 - 10.0 - - - - - - -
28/08:00am 14.8 NNW 16 21 1015.8 - 10.0 - - - - - - -
28/07:30am 14.4 NW 15 20 1015.6 - 10.0 - - - - - - -
28/07:00am 14.1 NNW 15 19 1015.4 - 10.0 - - - - - - -
28/06:30am 13.9 NNW 12 15 1015.4 - 10.0 - - - - - - -

Other Formats:

Comma delimited format used in spreadsheet applications
http://www.bom.gov.au/fwo/IDS60701/IDS60701.94813.axf

JavaScript Object Notation format (JSON) in row-major order
http://www.bom.gov.au/fwo/IDS60701/IDS60701.94813.json